sensor_id;sensor_type;location;lat;lon;timestamp;temperature;humidity
45685;DHT22;46836;48.388;16.210;2022-12-10T00:01:34;3.90;99.90
45685;DHT22;46836;48.388;16.210;2022-12-10T00:04:02;3.90;99.90
45685;DHT22;46836;48.388;16.210;2022-12-10T00:06:31;3.90;99.90
45685;DHT22;46836;48.388;16.210;2022-12-10T00:09:00;3.80;99.90
45685;DHT22;46836;48.388;16.210;2022-12-10T00:11:28;3.80;99.90
45685;DHT22;46836;48.388;16.210;2022-12-10T00:13:55;3.90;99.90
45685;DHT22;46836;48.388;16.210;2022-12-10T00:16:25;3.90;99.90
45685;DHT22;46836;48.388;16.210;2022-12-10T00:18:53;3.90;99.90
45685;DHT22;46836;48.388;16.210;2022-12-10T00:21:24;3.90;99.90
45685;DHT22;46836;48.388;16.210;2022-12-10T00:23:52;3.90;99.90
45685;DHT22;46836;48.388;16.210;2022-12-10T00:26:25;3.90;99.90
45685;DHT22;46836;48.388;16.210;2022-12-10T00:28:53;3.90;99.90
45685;DHT22;46836;48.388;16.210;2022-12-10T00:31:27;3.80;99.90
45685;DHT22;46836;48.388;16.210;2022-12-10T00:33:56;3.90;99.90
45685;DHT22;46836;48.388;16.210;2022-12-10T00:36:40;3.90;99.90
45685;DHT22;46836;48.388;16.210;2022-12-10T00:39:10;3.90;99.90
45685;DHT22;46836;48.388;16.210;2022-12-10T00:41:38;3.90;99.90
45685;DHT22;46836;48.388;16.210;2022-12-10T00:44:05;3.90;99.90
45685;DHT22;46836;48.388;16.210;2022-12-10T00:46:32;4.00;99.90
45685;DHT22;46836;48.388;16.210;2022-12-10T00:49:00;4.00;99.90
45685;DHT22;46836;48.388;16.210;2022-12-10T00:51:27;3.90;99.90
45685;DHT22;46836;48.388;16.210;2022-12-10T00:53:56;3.90;99.90
45685;DHT22;46836;48.388;16.210;2022-12-10T00:56:29;3.90;99.90
45685;DHT22;46836;48.388;16.210;2022-12-10T00:58:57;3.90;99.90
45685;DHT22;46836;48.388;16.210;2022-12-10T01:01:27;3.90;99.90
45685;DHT22;46836;48.388;16.210;2022-12-10T01:03:56;3.90;99.90
45685;DHT22;46836;48.388;16.210;2022-12-10T01:06:36;4.00;99.90
45685;DHT22;46836;48.388;16.210;2022-12-10T01:09:09;4.00;99.90
45685;DHT22;46836;48.388;16.210;2022-12-10T01:11:38;4.00;99.90
45685;DHT22;46836;48.388;16.210;2022-12-10T01:14:10;4.00;99.90
45685;DHT22;46836;48.388;16.210;2022-12-10T01:16:37;4.00;99.90
45685;DHT22;46836;48.388;16.210;2022-12-10T01:19:05;4.00;99.90
45685;DHT22;46836;48.388;16.210;2022-12-10T01:21:32;4.00;99.90
45685;DHT22;46836;48.388;16.210;2022-12-10T01:24:00;4.00;99.90
45685;DHT22;46836;48.388;16.210;2022-12-10T01:26:31;4.00;99.90
45685;DHT22;46836;48.388;16.210;2022-12-10T01:28:58;4.00;99.90
45685;DHT22;46836;48.388;16.210;2022-12-10T01:31:32;4.00;99.90
45685;DHT22;46836;48.388;16.210;2022-12-10T01:33:59;4.10;99.90
45685;DHT22;46836;48.388;16.210;2022-12-10T01:36:33;4.10;99.90
45685;DHT22;46836;48.388;16.210;2022-12-10T01:39:02;4.20;99.90
45685;DHT22;46836;48.388;16.210;2022-12-10T01:41:40;4.20;99.90
45685;DHT22;46836;48.388;16.210;2022-12-10T01:46:37;4.20;99.90
45685;DHT22;46836;48.388;16.210;2022-12-10T01:49:08;4.20;99.90
45685;DHT22;46836;48.388;16.210;2022-12-10T01:51:37;4.20;99.90
45685;DHT22;46836;48.388;16.210;2022-12-10T01:54:08;4.20;99.90
45685;DHT22;46836;48.388;16.210;2022-12-10T01:56:38;4.20;99.90
45685;DHT22;46836;48.388;16.210;2022-12-10T01:59:08;4.20;99.90
45685;DHT22;46836;48.388;16.210;2022-12-10T02:07:32;4.20;99.90
45685;DHT22;46836;48.388;16.210;2022-12-10T02:12:46;4.10;99.90
45685;DHT22;46836;48.388;16.210;2022-12-10T02:15:27;4.10;99.90
45685;DHT22;46836;48.388;16.210;2022-12-10T02:18:00;4.10;99.90
45685;DHT22;46836;48.388;16.210;2022-12-10T02:20:49;4.10;99.90
45685;DHT22;46836;48.388;16.210;2022-12-10T02:23:34;4.00;99.90
45685;DHT22;46836;48.388;16.210;2022-12-10T02:26:14;4.00;99.90
45685;DHT22;46836;48.388;16.210;2022-12-10T02:29:15;4.10;99.90
45685;DHT22;46836;48.388;16.210;2022-12-10T02:32:06;4.00;99.90
45685;DHT22;46836;48.388;16.210;2022-12-10T02:34:40;4.00;99.90
45685;DHT22;46836;48.388;16.210;2022-12-10T02:37:24;4.00;99.90
45685;DHT22;46836;48.388;16.210;2022-12-10T02:39:55;4.00;99.90
45685;DHT22;46836;48.388;16.210;2022-12-10T02:42:25;4.00;99.90
45685;DHT22;46836;48.388;16.210;2022-12-10T02:44:54;4.00;99.90
45685;DHT22;46836;48.388;16.210;2022-12-10T02:47:21;4.00;99.90
45685;DHT22;46836;48.388;16.210;2022-12-10T02:49:50;4.00;99.90
45685;DHT22;46836;48.388;16.210;2022-12-10T02:52:20;4.00;99.90
45685;DHT22;46836;48.388;16.210;2022-12-10T02:54:48;4.00;99.90
45685;DHT22;46836;48.388;16.210;2022-12-10T02:57:47;4.10;99.90
45685;DHT22;46836;48.388;16.210;2022-12-10T03:00:22;4.10;99.90
45685;DHT22;46836;48.388;16.210;2022-12-10T03:06:03;4.00;99.90
45685;DHT22;46836;48.388;16.210;2022-12-10T03:11:21;4.00;99.90
45685;DHT22;46836;48.388;16.210;2022-12-10T03:14:00;4.00;99.90
45685;DHT22;46836;48.388;16.210;2022-12-10T03:16:33;4.00;99.90
45685;DHT22;46836;48.388;16.210;2022-12-10T03:19:07;4.00;99.90
45685;DHT22;46836;48.388;16.210;2022-12-10T03:21:39;3.90;99.90
45685;DHT22;46836;48.388;16.210;2022-12-10T03:24:09;3.90;99.90
45685;DHT22;46836;48.388;16.210;2022-12-10T03:26:40;3.90;99.90
45685;DHT22;46836;48.388;16.210;2022-12-10T03:29:12;3.90;99.90
45685;DHT22;46836;48.388;16.210;2022-12-10T03:31:42;4.00;99.90
45685;DHT22;46836;48.388;16.210;2022-12-10T03:34:10;4.00;99.90
45685;DHT22;46836;48.388;16.210;2022-12-10T03:36:38;4.00;99.90
45685;DHT22;46836;48.388;16.210;2022-12-10T03:39:06;4.00;99.90
45685;DHT22;46836;48.388;16.210;2022-12-10T03:41:34;4.00;99.90
45685;DHT22;46836;48.388;16.210;2022-12-10T03:44:01;4.00;99.90
45685;DHT22;46836;48.388;16.210;2022-12-10T03:46:30;4.00;99.90
45685;DHT22;46836;48.388;16.210;2022-12-10T03:48:59;4.00;99.90
45685;DHT22;46836;48.388;16.210;2022-12-10T03:51:26;4.00;99.90
45685;DHT22;46836;48.388;16.210;2022-12-10T03:53:53;4.10;99.90
45685;DHT22;46836;48.388;16.210;2022-12-10T03:56:21;4.10;99.90
45685;DHT22;46836;48.388;16.210;2022-12-10T03:58:48;4.10;99.90
45685;DHT22;46836;48.388;16.210;2022-12-10T04:01:16;4.20;99.90
45685;DHT22;46836;48.388;16.210;2022-12-10T04:03:43;4.20;99.90
45685;DHT22;46836;48.388;16.210;2022-12-10T04:06:13;4.20;99.90
45685;DHT22;46836;48.388;16.210;2022-12-10T04:08:41;4.20;99.90
45685;DHT22;46836;48.388;16.210;2022-12-10T04:11:09;4.20;99.90
45685;DHT22;46836;48.388;16.210;2022-12-10T04:13:38;4.20;99.90
45685;DHT22;46836;48.388;16.210;2022-12-10T04:16:25;4.20;99.90
45685;DHT22;46836;48.388;16.210;2022-12-10T04:21:29;4.30;99.90
45685;DHT22;46836;48.388;16.210;2022-12-10T04:24:18;4.30;99.90
45685;DHT22;46836;48.388;16.210;2022-12-10T04:27:09;4.30;99.90
45685;DHT22;46836;48.388;16.210;2022-12-10T04:29:37;4.30;99.90
45685;DHT22;46836;48.388;16.210;2022-12-10T04:32:05;4.30;99.90
45685;DHT22;46836;48.388;16.210;2022-12-10T04:34:32;4.30;99.90
45685;DHT22;46836;48.388;16.210;2022-12-10T04:37:00;4.30;99.90
45685;DHT22;46836;48.388;16.210;2022-12-10T04:39:28;4.30;99.90
45685;DHT22;46836;48.388;16.210;2022-12-10T04:41:55;4.30;99.90
45685;DHT22;46836;48.388;16.210;2022-12-10T04:44:22;4.30;99.90
45685;DHT22;46836;48.388;16.210;2022-12-10T04:46:49;4.30;99.90
45685;DHT22;46836;48.388;16.210;2022-12-10T04:49:17;4.30;99.90
45685;DHT22;46836;48.388;16.210;2022-12-10T04:51:44;4.30;99.90
45685;DHT22;46836;48.388;16.210;2022-12-10T04:54:13;4.30;99.90
45685;DHT22;46836;48.388;16.210;2022-12-10T04:56:40;4.30;99.90
45685;DHT22;46836;48.388;16.210;2022-12-10T04:59:07;4.30;99.90
45685;DHT22;46836;48.388;16.210;2022-12-10T05:01:36;4.30;99.90
45685;DHT22;46836;48.388;16.210;2022-12-10T05:04:04;4.30;99.90
45685;DHT22;46836;48.388;16.210;2022-12-10T05:06:32;4.30;99.90
45685;DHT22;46836;48.388;16.210;2022-12-10T05:09:00;4.30;99.90
45685;DHT22;46836;48.388;16.210;2022-12-10T05:11:28;4.30;99.90
45685;DHT22;46836;48.388;16.210;2022-12-10T05:13:57;4.30;99.90
45685;DHT22;46836;48.388;16.210;2022-12-10T05:16:27;4.30;99.90
45685;DHT22;46836;48.388;16.210;2022-12-10T05:18:55;4.30;99.90
45685;DHT22;46836;48.388;16.210;2022-12-10T05:21:24;4.20;99.90
45685;DHT22;46836;48.388;16.210;2022-12-10T05:24:12;4.20;99.90
45685;DHT22;46836;48.388;16.210;2022-12-10T05:26:40;4.20;99.90
45685;DHT22;46836;48.388;16.210;2022-12-10T05:29:07;4.20;99.90
45685;DHT22;46836;48.388;16.210;2022-12-10T05:31:35;4.20;99.90
45685;DHT22;46836;48.388;16.210;2022-12-10T05:34:03;4.20;99.90
45685;DHT22;46836;48.388;16.210;2022-12-10T05:36:31;4.20;99.90
45685;DHT22;46836;48.388;16.210;2022-12-10T05:38:59;4.10;99.90
45685;DHT22;46836;48.388;16.210;2022-12-10T05:41:28;4.10;99.90
45685;DHT22;46836;48.388;16.210;2022-12-10T05:43:57;4.10;99.90
45685;DHT22;46836;48.388;16.210;2022-12-10T05:46:28;4.10;99.90
45685;DHT22;46836;48.388;16.210;2022-12-10T05:48:56;4.10;99.90
45685;DHT22;46836;48.388;16.210;2022-12-10T05:51:27;4.10;99.90
45685;DHT22;46836;48.388;16.210;2022-12-10T05:53:54;4.10;99.90
45685;DHT22;46836;48.388;16.210;2022-12-10T05:56:23;4.00;99.90
45685;DHT22;46836;48.388;16.210;2022-12-10T05:58:57;4.00;99.90
45685;DHT22;46836;48.388;16.210;2022-12-10T06:01:26;4.00;99.90
45685;DHT22;46836;48.388;16.210;2022-12-10T06:03:54;4.00;99.90
45685;DHT22;46836;48.388;16.210;2022-12-10T06:06:25;4.00;99.90
45685;DHT22;46836;48.388;16.210;2022-12-10T06:08:53;4.00;99.90
45685;DHT22;46836;48.388;16.210;2022-12-10T06:11:20;4.00;99.90
45685;DHT22;46836;48.388;16.210;2022-12-10T06:13:47;4.00;99.90
45685;DHT22;46836;48.388;16.210;2022-12-10T06:16:22;4.00;99.90
45685;DHT22;46836;48.388;16.210;2022-12-10T06:18:50;4.00;99.90
45685;DHT22;46836;48.388;16.210;2022-12-10T06:21:18;3.90;99.90
45685;DHT22;46836;48.388;16.210;2022-12-10T06:23:45;3.90;99.90
45685;DHT22;46836;48.388;16.210;2022-12-10T06:26:16;3.90;99.90
45685;DHT22;46836;48.388;16.210;2022-12-10T06:28:47;3.90;99.90
45685;DHT22;46836;48.388;16.210;2022-12-10T06:31:14;3.90;99.90
45685;DHT22;46836;48.388;16.210;2022-12-10T06:33:42;3.90;99.90
45685;DHT22;46836;48.388;16.210;2022-12-10T06:36:11;3.90;99.90
45685;DHT22;46836;48.388;16.210;2022-12-10T06:38:39;3.90;99.90
45685;DHT22;46836;48.388;16.210;2022-12-10T06:41:07;3.90;99.90
45685;DHT22;46836;48.388;16.210;2022-12-10T06:43:36;4.00;99.90
45685;DHT22;46836;48.388;16.210;2022-12-10T06:46:14;4.00;99.90
45685;DHT22;46836;48.388;16.210;2022-12-10T06:48:41;4.00;99.90
45685;DHT22;46836;48.388;16.210;2022-12-10T06:51:10;4.10;99.90
45685;DHT22;46836;48.388;16.210;2022-12-10T06:53:39;4.10;99.90
45685;DHT22;46836;48.388;16.210;2022-12-10T06:56:07;4.10;99.90
45685;DHT22;46836;48.388;16.210;2022-12-10T06:58:35;4.10;99.90
45685;DHT22;46836;48.388;16.210;2022-12-10T07:01:04;4.10;99.90
45685;DHT22;46836;48.388;16.210;2022-12-10T07:03:31;4.10;99.90
45685;DHT22;46836;48.388;16.210;2022-12-10T07:05:59;4.10;99.90
45685;DHT22;46836;48.388;16.210;2022-12-10T07:08:27;4.10;99.90
45685;DHT22;46836;48.388;16.210;2022-12-10T07:10:54;4.10;99.90
45685;DHT22;46836;48.388;16.210;2022-12-10T07:13:21;4.20;99.90
45685;DHT22;46836;48.388;16.210;2022-12-10T07:15:55;4.10;99.90
45685;DHT22;46836;48.388;16.210;2022-12-10T07:18:22;4.10;99.90
45685;DHT22;46836;48.388;16.210;2022-12-10T07:20:49;4.00;99.90
45685;DHT22;46836;48.388;16.210;2022-12-10T07:23:16;4.00;99.90
45685;DHT22;46836;48.388;16.210;2022-12-10T07:25:43;3.90;99.90
45685;DHT22;46836;48.388;16.210;2022-12-10T07:28:10;3.90;99.90
45685;DHT22;46836;48.388;16.210;2022-12-10T07:30:37;4.00;99.90
45685;DHT22;46836;48.388;16.210;2022-12-10T07:33:04;4.00;99.90
45685;DHT22;46836;48.388;16.210;2022-12-10T07:35:31;4.00;99.90
45685;DHT22;46836;48.388;16.210;2022-12-10T07:37:58;4.00;99.90
45685;DHT22;46836;48.388;16.210;2022-12-10T07:40:25;4.00;99.90
45685;DHT22;46836;48.388;16.210;2022-12-10T07:42:52;4.00;99.90
45685;DHT22;46836;48.388;16.210;2022-12-10T07:45:19;4.00;99.90
45685;DHT22;46836;48.388;16.210;2022-12-10T07:47:46;4.00;99.90
45685;DHT22;46836;48.388;16.210;2022-12-10T07:50:13;4.00;99.90
45685;DHT22;46836;48.388;16.210;2022-12-10T07:52:40;4.10;99.90
45685;DHT22;46836;48.388;16.210;2022-12-10T07:55:08;4.10;99.90
45685;DHT22;46836;48.388;16.210;2022-12-10T07:57:35;4.20;99.90
45685;DHT22;46836;48.388;16.210;2022-12-10T08:00:03;4.20;99.90
45685;DHT22;46836;48.388;16.210;2022-12-10T08:02:30;4.30;99.90
45685;DHT22;46836;48.388;16.210;2022-12-10T08:04:57;4.40;99.90
45685;DHT22;46836;48.388;16.210;2022-12-10T08:07:24;4.40;99.90
45685;DHT22;46836;48.388;16.210;2022-12-10T08:09:51;4.50;99.90
45685;DHT22;46836;48.388;16.210;2022-12-10T08:12:18;4.40;99.90
45685;DHT22;46836;48.388;16.210;2022-12-10T08:14:45;4.50;99.90
45685;DHT22;46836;48.388;16.210;2022-12-10T08:17:12;4.50;99.90
45685;DHT22;46836;48.388;16.210;2022-12-10T08:19:39;4.50;99.90
45685;DHT22;46836;48.388;16.210;2022-12-10T08:22:07;4.50;99.90
45685;DHT22;46836;48.388;16.210;2022-12-10T08:24:34;4.50;99.90
45685;DHT22;46836;48.388;16.210;2022-12-10T08:27:01;4.50;99.90
45685;DHT22;46836;48.388;16.210;2022-12-10T08:29:28;4.60;99.90
45685;DHT22;46836;48.388;16.210;2022-12-10T08:31:55;4.60;99.90
45685;DHT22;46836;48.388;16.210;2022-12-10T08:34:22;4.60;99.90
45685;DHT22;46836;48.388;16.210;2022-12-10T08:36:50;4.60;99.90
45685;DHT22;46836;48.388;16.210;2022-12-10T08:39:17;4.50;99.90
45685;DHT22;46836;48.388;16.210;2022-12-10T08:41:45;4.50;99.90
45685;DHT22;46836;48.388;16.210;2022-12-10T08:44:13;4.50;99.90
45685;DHT22;46836;48.388;16.210;2022-12-10T08:46:40;4.50;99.90
45685;DHT22;46836;48.388;16.210;2022-12-10T08:49:07;4.60;99.90
45685;DHT22;46836;48.388;16.210;2022-12-10T08:51:35;4.60;99.90
45685;DHT22;46836;48.388;16.210;2022-12-10T08:54:02;4.60;99.90
45685;DHT22;46836;48.388;16.210;2022-12-10T08:56:29;4.60;99.90
45685;DHT22;46836;48.388;16.210;2022-12-10T08:58:56;4.70;99.90
45685;DHT22;46836;48.388;16.210;2022-12-10T09:01:23;4.70;99.90
45685;DHT22;46836;48.388;16.210;2022-12-10T09:03:50;4.80;99.90
45685;DHT22;46836;48.388;16.210;2022-12-10T09:06:20;4.80;99.90
45685;DHT22;46836;48.388;16.210;2022-12-10T09:08:47;4.80;99.90
45685;DHT22;46836;48.388;16.210;2022-12-10T09:11:21;4.80;99.90
45685;DHT22;46836;48.388;16.210;2022-12-10T09:13:49;4.80;99.90
45685;DHT22;46836;48.388;16.210;2022-12-10T09:16:16;4.70;99.90
45685;DHT22;46836;48.388;16.210;2022-12-10T09:18:44;4.70;99.90
45685;DHT22;46836;48.388;16.210;2022-12-10T09:21:14;4.70;99.90
45685;DHT22;46836;48.388;16.210;2022-12-10T09:23:42;4.70;99.90
45685;DHT22;46836;48.388;16.210;2022-12-10T09:26:12;4.80;99.90
45685;DHT22;46836;48.388;16.210;2022-12-10T09:28:40;4.80;99.90
45685;DHT22;46836;48.388;16.210;2022-12-10T09:31:08;4.80;99.90
45685;DHT22;46836;48.388;16.210;2022-12-10T09:33:45;4.70;99.90
45685;DHT22;46836;48.388;16.210;2022-12-10T09:36:13;4.70;99.90
45685;DHT22;46836;48.388;16.210;2022-12-10T09:38:42;4.60;99.90
45685;DHT22;46836;48.388;16.210;2022-12-10T09:46:56;4.60;99.90
45685;DHT22;46836;48.388;16.210;2022-12-10T09:52:11;4.60;99.90
45685;DHT22;46836;48.388;16.210;2022-12-10T09:54:48;4.60;99.90
45685;DHT22;46836;48.388;16.210;2022-12-10T09:57:27;4.70;99.90
45685;DHT22;46836;48.388;16.210;2022-12-10T09:59:55;4.70;99.90
45685;DHT22;46836;48.388;16.210;2022-12-10T10:05:10;4.80;99.90
45685;DHT22;46836;48.388;16.210;2022-12-10T10:07:58;4.80;99.90
45685;DHT22;46836;48.388;16.210;2022-12-10T10:10:28;4.80;99.90
45685;DHT22;46836;48.388;16.210;2022-12-10T10:15:52;4.80;99.90
45685;DHT22;46836;48.388;16.210;2022-12-10T10:18:29;4.70;99.90
45685;DHT22;46836;48.388;16.210;2022-12-10T10:21:00;4.70;99.90
45685;DHT22;46836;48.388;16.210;2022-12-10T10:23:27;4.60;99.90
45685;DHT22;46836;48.388;16.210;2022-12-10T10:25:54;4.60;99.90
45685;DHT22;46836;48.388;16.210;2022-12-10T10:28:22;4.60;99.90
45685;DHT22;46836;48.388;16.210;2022-12-10T10:30:52;4.60;99.90
45685;DHT22;46836;48.388;16.210;2022-12-10T10:33:20;4.70;99.90
45685;DHT22;46836;48.388;16.210;2022-12-10T10:35:49;4.70;99.90
45685;DHT22;46836;48.388;16.210;2022-12-10T10:38:22;4.80;99.90
45685;DHT22;46836;48.388;16.210;2022-12-10T10:40:53;4.80;99.90
45685;DHT22;46836;48.388;16.210;2022-12-10T10:43:25;4.80;99.90
45685;DHT22;46836;48.388;16.210;2022-12-10T10:46:02;4.80;99.90
45685;DHT22;46836;48.388;16.210;2022-12-10T10:48:32;4.80;99.90
45685;DHT22;46836;48.388;16.210;2022-12-10T10:51:17;4.70;99.90
45685;DHT22;46836;48.388;16.210;2022-12-10T10:53:52;4.80;99.90
45685;DHT22;46836;48.388;16.210;2022-12-10T10:59:06;4.80;99.90
45685;DHT22;46836;48.388;16.210;2022-12-10T11:01:46;4.90;99.90
45685;DHT22;46836;48.388;16.210;2022-12-10T11:04:16;4.80;99.90
45685;DHT22;46836;48.388;16.210;2022-12-10T11:06:45;4.90;99.90
45685;DHT22;46836;48.388;16.210;2022-12-10T11:09:21;4.90;99.90
45685;DHT22;46836;48.388;16.210;2022-12-10T11:11:57;4.90;99.90
45685;DHT22;46836;48.388;16.210;2022-12-10T11:14:39;4.90;99.90
45685;DHT22;46836;48.388;16.210;2022-12-10T11:19:57;4.90;99.90
45685;DHT22;46836;48.388;16.210;2022-12-10T11:22:28;4.90;99.90
45685;DHT22;46836;48.388;16.210;2022-12-10T11:24:58;4.90;99.90
45685;DHT22;46836;48.388;16.210;2022-12-10T11:27:51;4.90;99.90
45685;DHT22;46836;48.388;16.210;2022-12-10T11:30:22;4.80;99.90
45685;DHT22;46836;48.388;16.210;2022-12-10T11:33:34;4.80;99.90
45685;DHT22;46836;48.388;16.210;2022-12-10T11:41:56;4.80;99.90
45685;DHT22;46836;48.388;16.210;2022-12-10T11:44:47;4.80;99.90
45685;DHT22;46836;48.388;16.210;2022-12-10T11:58:36;5.10;99.90
45685;DHT22;46836;48.388;16.210;2022-12-10T12:01:55;5.10;99.90
45685;DHT22;46836;48.388;16.210;2022-12-10T12:07:33;5.20;99.90
45685;DHT22;46836;48.388;16.210;2022-12-10T12:13:35;5.20;99.90
45685;DHT22;46836;48.388;16.210;2022-12-10T12:16:16;5.10;99.90
45685;DHT22;46836;48.388;16.210;2022-12-10T12:21:25;5.00;99.90
45685;DHT22;46836;48.388;16.210;2022-12-10T12:24:00;5.00;99.90
45685;DHT22;46836;48.388;16.210;2022-12-10T12:26:39;4.90;99.90
45685;DHT22;46836;48.388;16.210;2022-12-10T12:32:15;4.80;99.90
45685;DHT22;46836;48.388;16.210;2022-12-10T12:37:36;4.80;99.90
45685;DHT22;46836;48.388;16.210;2022-12-10T12:40:35;4.80;99.90
45685;DHT22;46836;48.388;16.210;2022-12-10T12:45:45;4.70;99.90
45685;DHT22;46836;48.388;16.210;2022-12-10T12:51:01;4.80;99.90
45685;DHT22;46836;48.388;16.210;2022-12-10T12:53:29;4.70;99.90
45685;DHT22;46836;48.388;16.210;2022-12-10T13:04:08;4.70;99.90
45685;DHT22;46836;48.388;16.210;2022-12-10T13:06:37;4.70;99.90
45685;DHT22;46836;48.388;16.210;2022-12-10T13:09:32;4.70;99.90
45685;DHT22;46836;48.388;16.210;2022-12-10T13:17:34;4.70;99.90
45685;DHT22;46836;48.388;16.210;2022-12-10T13:23:46;4.60;99.90
45685;DHT22;46836;48.388;16.210;2022-12-10T13:36:36;4.60;99.90
45685;DHT22;46836;48.388;16.210;2022-12-10T13:41:39;4.70;99.90
45685;DHT22;46836;48.388;16.210;2022-12-10T13:52:29;4.80;99.90
45685;DHT22;46836;48.388;16.210;2022-12-10T14:00:22;4.70;99.90
45685;DHT22;46836;48.388;16.210;2022-12-10T14:03:20;4.70;99.90
45685;DHT22;46836;48.388;16.210;2022-12-10T14:06:20;4.70;99.90
45685;DHT22;46836;48.388;16.210;2022-12-10T14:09:03;4.70;99.90
45685;DHT22;46836;48.388;16.210;2022-12-10T14:11:46;4.70;99.90
45685;DHT22;46836;48.388;16.210;2022-12-10T14:14:25;4.70;99.90
45685;DHT22;46836;48.388;16.210;2022-12-10T14:16:53;4.70;99.90
45685;DHT22;46836;48.388;16.210;2022-12-10T14:19:26;4.70;99.90
45685;DHT22;46836;48.388;16.210;2022-12-10T14:21:55;4.70;99.90
45685;DHT22;46836;48.388;16.210;2022-12-10T14:24:33;4.70;99.90
45685;DHT22;46836;48.388;16.210;2022-12-10T14:27:26;4.70;99.90
45685;DHT22;46836;48.388;16.210;2022-12-10T14:30:00;4.70;99.90
45685;DHT22;46836;48.388;16.210;2022-12-10T14:32:36;4.70;99.90
45685;DHT22;46836;48.388;16.210;2022-12-10T14:35:06;4.60;99.90
45685;DHT22;46836;48.388;16.210;2022-12-10T14:37:36;4.60;99.90
45685;DHT22;46836;48.388;16.210;2022-12-10T14:40:05;4.60;99.90
45685;DHT22;46836;48.388;16.210;2022-12-10T14:42:37;4.60;99.90
45685;DHT22;46836;48.388;16.210;2022-12-10T14:45:06;4.60;99.90
45685;DHT22;46836;48.388;16.210;2022-12-10T14:47:38;4.60;99.90
45685;DHT22;46836;48.388;16.210;2022-12-10T14:50:15;4.60;99.90
45685;DHT22;46836;48.388;16.210;2022-12-10T14:52:45;4.50;99.90
45685;DHT22;46836;48.388;16.210;2022-12-10T14:55:20;4.50;99.90
45685;DHT22;46836;48.388;16.210;2022-12-10T14:57:54;4.50;99.90
45685;DHT22;46836;48.388;16.210;2022-12-10T15:00:24;4.50;99.90
45685;DHT22;46836;48.388;16.210;2022-12-10T15:03:06;4.50;99.90
45685;DHT22;46836;48.388;16.210;2022-12-10T15:05:34;4.50;99.90
45685;DHT22;46836;48.388;16.210;2022-12-10T15:08:15;4.50;99.90
45685;DHT22;46836;48.388;16.210;2022-12-10T15:10:46;4.50;99.90
45685;DHT22;46836;48.388;16.210;2022-12-10T15:13:29;4.50;99.90
45685;DHT22;46836;48.388;16.210;2022-12-10T15:15:59;4.50;99.90
45685;DHT22;46836;48.388;16.210;2022-12-10T15:18:36;4.50;99.90
45685;DHT22;46836;48.388;16.210;2022-12-10T15:21:20;4.50;99.90
45685;DHT22;46836;48.388;16.210;2022-12-10T15:23:48;4.50;99.90
45685;DHT22;46836;48.388;16.210;2022-12-10T15:26:23;4.50;99.90
45685;DHT22;46836;48.388;16.210;2022-12-10T15:32:08;4.50;99.90
45685;DHT22;46836;48.388;16.210;2022-12-10T15:34:44;4.50;99.90
45685;DHT22;46836;48.388;16.210;2022-12-10T15:37:27;4.50;99.90
45685;DHT22;46836;48.388;16.210;2022-12-10T15:40:03;4.60;99.90
45685;DHT22;46836;48.388;16.210;2022-12-10T15:42:39;4.60;99.90
45685;DHT22;46836;48.388;16.210;2022-12-10T15:45:26;4.60;99.90
45685;DHT22;46836;48.388;16.210;2022-12-10T15:47:57;4.60;99.90
45685;DHT22;46836;48.388;16.210;2022-12-10T15:50:28;4.60;99.90
45685;DHT22;46836;48.388;16.210;2022-12-10T15:52:56;4.60;99.90
45685;DHT22;46836;48.388;16.210;2022-12-10T15:55:23;4.60;99.90
45685;DHT22;46836;48.388;16.210;2022-12-10T15:57:51;4.60;99.90
45685;DHT22;46836;48.388;16.210;2022-12-10T16:00:24;4.60;99.90
45685;DHT22;46836;48.388;16.210;2022-12-10T16:02:55;4.60;99.90
45685;DHT22;46836;48.388;16.210;2022-12-10T16:05:32;4.60;99.90
45685;DHT22;46836;48.388;16.210;2022-12-10T16:10:39;4.60;99.90
45685;DHT22;46836;48.388;16.210;2022-12-10T16:13:17;4.60;99.90
45685;DHT22;46836;48.388;16.210;2022-12-10T16:15:55;4.60;99.90
45685;DHT22;46836;48.388;16.210;2022-12-10T16:18:25;4.60;99.90
45685;DHT22;46836;48.388;16.210;2022-12-10T16:20:59;4.60;99.90
45685;DHT22;46836;48.388;16.210;2022-12-10T16:23:27;4.60;99.90
45685;DHT22;46836;48.388;16.210;2022-12-10T16:25:55;4.60;99.90
45685;DHT22;46836;48.388;16.210;2022-12-10T16:28:24;4.60;99.90
45685;DHT22;46836;48.388;16.210;2022-12-10T16:30:56;4.60;99.90
45685;DHT22;46836;48.388;16.210;2022-12-10T16:33:27;4.60;99.90
45685;DHT22;46836;48.388;16.210;2022-12-10T16:35:56;4.60;99.90
45685;DHT22;46836;48.388;16.210;2022-12-10T16:38:30;4.60;99.90
45685;DHT22;46836;48.388;16.210;2022-12-10T16:40:59;4.50;99.90
45685;DHT22;46836;48.388;16.210;2022-12-10T16:43:29;4.50;99.90
45685;DHT22;46836;48.388;16.210;2022-12-10T16:45:58;4.50;99.90
45685;DHT22;46836;48.388;16.210;2022-12-10T16:48:26;4.50;99.90
45685;DHT22;46836;48.388;16.210;2022-12-10T16:50:57;4.50;99.90
45685;DHT22;46836;48.388;16.210;2022-12-10T16:53:34;4.50;99.90
45685;DHT22;46836;48.388;16.210;2022-12-10T16:56:06;4.50;99.90
45685;DHT22;46836;48.388;16.210;2022-12-10T16:58:34;4.50;99.90
45685;DHT22;46836;48.388;16.210;2022-12-10T17:01:02;4.50;99.90
45685;DHT22;46836;48.388;16.210;2022-12-10T17:03:29;4.50;99.90
45685;DHT22;46836;48.388;16.210;2022-12-10T17:06:00;4.50;99.90
45685;DHT22;46836;48.388;16.210;2022-12-10T17:08:29;4.50;99.90
45685;DHT22;46836;48.388;16.210;2022-12-10T17:10:57;4.40;99.90
45685;DHT22;46836;48.388;16.210;2022-12-10T17:13:44;4.40;99.90
45685;DHT22;46836;48.388;16.210;2022-12-10T17:16:15;4.50;99.90
45685;DHT22;46836;48.388;16.210;2022-12-10T17:18:44;4.50;99.90
45685;DHT22;46836;48.388;16.210;2022-12-10T17:21:11;4.40;99.90
45685;DHT22;46836;48.388;16.210;2022-12-10T17:23:42;4.40;99.90
45685;DHT22;46836;48.388;16.210;2022-12-10T17:26:26;4.40;99.90
45685;DHT22;46836;48.388;16.210;2022-12-10T17:29:03;4.40;99.90
45685;DHT22;46836;48.388;16.210;2022-12-10T17:31:32;4.40;99.90
45685;DHT22;46836;48.388;16.210;2022-12-10T17:33:59;4.40;99.90
45685;DHT22;46836;48.388;16.210;2022-12-10T17:36:27;4.40;99.90
45685;DHT22;46836;48.388;16.210;2022-12-10T17:38:55;4.40;99.90
45685;DHT22;46836;48.388;16.210;2022-12-10T17:41:23;4.40;99.90
45685;DHT22;46836;48.388;16.210;2022-12-10T17:43:50;4.40;99.90
45685;DHT22;46836;48.388;16.210;2022-12-10T17:46:23;4.40;99.90
45685;DHT22;46836;48.388;16.210;2022-12-10T17:48:52;4.40;99.90
45685;DHT22;46836;48.388;16.210;2022-12-10T17:51:20;4.40;99.90
45685;DHT22;46836;48.388;16.210;2022-12-10T17:53:48;4.40;99.90
45685;DHT22;46836;48.388;16.210;2022-12-10T17:56:19;4.30;99.90
45685;DHT22;46836;48.388;16.210;2022-12-10T17:58:47;4.30;99.90
45685;DHT22;46836;48.388;16.210;2022-12-10T18:01:17;4.20;99.90
45685;DHT22;46836;48.388;16.210;2022-12-10T18:03:46;4.20;99.90